Skip Navigation Links Skip Navigation Links

Current Weather

Ahwaz, Iran

For information only: do not use for flight planning or navigation.
Latest weather
Observation time Wednesday, October 27, 2021 9:00 AM +0330
Local time Wednesday, October 27, 2021 9:14 AM +0330
Flight conditions Visual Meteorological Conditions
Winds
Wind direction Southeast (140°)
Wind speed 2 mph
Visibility 6.2 mi.
Sky condition
Ceiling unlimited
Sky clear
Temperature 75°F
Dewpoint 30°F
Altimeter 30.00 in.Hg
Derived measurements
Relative humidity 19%
Density altitude 1116 ft.
Remarks
Ceiling and visibility OK.
METAR OIAW 270530Z 14002KT CAVOK 24/M01 Q1016

Settings

Location code

InnerDrive.Weather 4.0.6770.0 Release CLR 4.0.30319.42000
Copyright ©2018 Inner Drive Technology. All rights reserved. Portions Copyright ©1986-2018 David Braverman.

Find weather

Site navigation


Skip Navigation Links

Place info

Page info

PayPal - The safer, easier way to pay online!

Return home.

Copyright ©2021 Inner Drive Technology. Purveyors of fine, hand-crafted computer software. Page printed 2021-10-27T05:44:05 UTC.